sensor_id;sensor_type;location;lat;lon;timestamp;P1;durP1;ratioP1;P2;durP2;ratioP2
14346;SDS011;7257;52.158;9.968;2022-11-25T00:00:08;6.78;;;4.78;;
14346;SDS011;7257;52.158;9.968;2022-11-25T00:00:33;5.35;;;3.50;;
14346;SDS011;7257;52.158;9.968;2022-11-25T00:01:02;5.38;;;3.40;;
14346;SDS011;7257;52.158;9.968;2022-11-25T00:01:25;7.20;;;4.20;;
14346;SDS011;7257;52.158;9.968;2022-11-25T00:01:47;7.55;;;4.57;;
14346;SDS011;7257;52.158;9.968;2022-11-25T00:02:08;6.25;;;4.03;;
14346;SDS011;7257;52.158;9.968;2022-11-25T00:02:30;6.88;;;3.78;;
14346;SDS011;7257;52.158;9.968;2022-11-25T00:02:51;9.75;;;4.00;;
14346;SDS011;7257;52.158;9.968;2022-11-25T00:03:12;9.20;;;3.47;;
14346;SDS011;7257;52.158;9.968;2022-11-25T00:03:33;7.75;;;3.25;;
14346;SDS011;7257;52.158;9.968;2022-11-25T00:03:55;5.45;;;3.50;;
14346;SDS011;7257;52.158;9.968;2022-11-25T00:04:17;6.22;;;3.80;;
14346;SDS011;7257;52.158;9.968;2022-11-25T00:04:38;6.25;;;3.40;;
14346;SDS011;7257;52.158;9.968;2022-11-25T00:04:59;6.50;;;3.25;;
14346;SDS011;7257;52.158;9.968;2022-11-25T00:05:20;6.40;;;3.10;;
14346;SDS011;7257;52.158;9.968;2022-11-25T00:05:41;6.40;;;3.00;;
14346;SDS011;7257;52.158;9.968;2022-11-25T00:06:06;6.78;;;3.00;;
14346;SDS011;7257;52.158;9.968;2022-11-25T00:06:29;5.80;;;3.00;;
14346;SDS011;7257;52.158;9.968;2022-11-25T00:06:54;4.55;;;3.00;;
14346;SDS011;7257;52.158;9.968;2022-11-25T00:07:16;6.45;;;3.15;;
14346;SDS011;7257;52.158;9.968;2022-11-25T00:07:37;7.43;;;4.13;;
14346;SDS011;7257;52.158;9.968;2022-11-25T00:08:04;9.10;;;5.55;;
14346;SDS011;7257;52.158;9.968;2022-11-25T00:08:25;7.60;;;5.05;;
14346;SDS011;7257;52.158;9.968;2022-11-25T00:08:50;8.80;;;4.70;;
14346;SDS011;7257;52.158;9.968;2022-11-25T00:09:17;7.38;;;4.10;;
14346;SDS011;7257;52.158;9.968;2022-11-25T00:09:38;4.97;;;3.50;;
14346;SDS011;7257;52.158;9.968;2022-11-25T00:09:59;4.35;;;3.17;;
14346;SDS011;7257;52.158;9.968;2022-11-25T00:10:21;4.25;;;3.30;;
14346;SDS011;7257;52.158;9.968;2022-11-25T00:10:43;4.78;;;3.60;;
14346;SDS011;7257;52.158;9.968;2022-11-25T00:11:07;5.30;;;3.70;;
14346;SDS011;7257;52.158;9.968;2022-11-25T00:11:37;7.90;;;3.50;;
14346;SDS011;7257;52.158;9.968;2022-11-25T00:11:59;9.45;;;3.90;;
14346;SDS011;7257;52.158;9.968;2022-11-25T00:12:20;7.55;;;3.42;;
14346;SDS011;7257;52.158;9.968;2022-11-25T00:12:41;6.78;;;3.53;;
14346;SDS011;7257;52.158;9.968;2022-11-25T00:13:02;4.95;;;3.20;;
14346;SDS011;7257;52.158;9.968;2022-11-25T00:13:23;8.00;;;3.47;;
14346;SDS011;7257;52.158;9.968;2022-11-25T00:13:44;8.68;;;3.40;;
14346;SDS011;7257;52.158;9.968;2022-11-25T00:14:08;9.60;;;3.80;;
14346;SDS011;7257;52.158;9.968;2022-11-25T00:14:31;6.53;;;4.05;;
14346;SDS011;7257;52.158;9.968;2022-11-25T00:14:52;7.65;;;3.80;;
14346;SDS011;7257;52.158;9.968;2022-11-25T00:15:13;6.78;;;3.53;;
14346;SDS011;7257;52.158;9.968;2022-11-25T00:15:37;7.85;;;3.50;;
14346;SDS011;7257;52.158;9.968;2022-11-25T00:15:59;6.15;;;3.63;;
14346;SDS011;7257;52.158;9.968;2022-11-25T00:16:22;6.78;;;3.75;;
14346;SDS011;7257;52.158;9.968;2022-11-25T00:16:43;5.70;;;3.70;;
14346;SDS011;7257;52.158;9.968;2022-11-25T00:17:06;5.60;;;3.03;;
14346;SDS011;7257;52.158;9.968;2022-11-25T00:17:26;6.82;;;3.33;;
14346;SDS011;7257;52.158;9.968;2022-11-25T00:17:47;8.03;;;3.90;;
14346;SDS011;7257;52.158;9.968;2022-11-25T00:18:08;7.38;;;4.50;;
14346;SDS011;7257;52.158;9.968;2022-11-25T00:18:29;6.88;;;4.72;;
14346;SDS011;7257;52.158;9.968;2022-11-25T00:18:52;6.85;;;4.40;;
14346;SDS011;7257;52.158;9.968;2022-11-25T00:19:18;7.50;;;3.70;;
14346;SDS011;7257;52.158;9.968;2022-11-25T00:19:41;7.43;;;3.28;;
14346;SDS011;7257;52.158;9.968;2022-11-25T00:20:10;7.53;;;3.80;;
14346;SDS011;7257;52.158;9.968;2022-11-25T00:20:35;9.45;;;3.88;;
14346;SDS011;7257;52.158;9.968;2022-11-25T00:21:03;9.88;;;3.53;;
14346;SDS011;7257;52.158;9.968;2022-11-25T00:21:26;8.48;;;3.50;;
14346;SDS011;7257;52.158;9.968;2022-11-25T00:21:54;7.28;;;3.40;;
14346;SDS011;7257;52.158;9.968;2022-11-25T00:22:15;6.97;;;3.80;;
14346;SDS011;7257;52.158;9.968;2022-11-25T00:22:36;8.38;;;3.50;;
14346;SDS011;7257;52.158;9.968;2022-11-25T00:22:57;7.75;;;3.30;;
14346;SDS011;7257;52.158;9.968;2022-11-25T00:23:18;6.20;;;2.83;;
14346;SDS011;7257;52.158;9.968;2022-11-25T00:23:43;5.88;;;3.20;;
14346;SDS011;7257;52.158;9.968;2022-11-25T00:24:09;5.00;;;3.00;;
14346;SDS011;7257;52.158;9.968;2022-11-25T00:24:33;5.20;;;2.90;;
14346;SDS011;7257;52.158;9.968;2022-11-25T00:24:55;6.28;;;3.00;;
14346;SDS011;7257;52.158;9.968;2022-11-25T00:25:16;5.60;;;3.40;;
14346;SDS011;7257;52.158;9.968;2022-11-25T00:25:37;5.55;;;3.88;;
14346;SDS011;7257;52.158;9.968;2022-11-25T00:26:03;4.22;;;3.53;;
14346;SDS011;7257;52.158;9.968;2022-11-25T00:26:26;6.30;;;3.70;;
14346;SDS011;7257;52.158;9.968;2022-11-25T00:26:53;5.75;;;3.25;;
14346;SDS011;7257;52.158;9.968;2022-11-25T00:27:14;5.78;;;3.60;;
14346;SDS011;7257;52.158;9.968;2022-11-25T00:27:38;4.50;;;3.50;;
14346;SDS011;7257;52.158;9.968;2022-11-25T00:27:59;5.97;;;3.70;;
14346;SDS011;7257;52.158;9.968;2022-11-25T00:28:20;7.00;;;4.43;;
14346;SDS011;7257;52.158;9.968;2022-11-25T00:28:43;9.25;;;4.43;;
14346;SDS011;7257;52.158;9.968;2022-11-25T00:29:11;9.05;;;3.88;;
14346;SDS011;7257;52.158;9.968;2022-11-25T00:29:38;6.72;;;3.30;;
14346;SDS011;7257;52.158;9.968;2022-11-25T00:30:07;6.72;;;3.40;;
14346;SDS011;7257;52.158;9.968;2022-11-25T00:30:32;8.00;;;4.43;;
14346;SDS011;7257;52.158;9.968;2022-11-25T00:31:02;8.48;;;4.40;;
14346;SDS011;7257;52.158;9.968;2022-11-25T00:31:25;7.93;;;3.88;;
14346;SDS011;7257;52.158;9.968;2022-11-25T00:31:50;8.50;;;4.05;;
14346;SDS011;7257;52.158;9.968;2022-11-25T00:32:11;7.07;;;4.05;;
14346;SDS011;7257;52.158;9.968;2022-11-25T00:32:34;6.28;;;3.70;;
14346;SDS011;7257;52.158;9.968;2022-11-25T00:32:55;6.38;;;3.72;;
14346;SDS011;7257;52.158;9.968;2022-11-25T00:33:17;8.07;;;4.00;;
14346;SDS011;7257;52.158;9.968;2022-11-25T00:33:53;9.00;;;4.32;;
14346;SDS011;7257;52.158;9.968;2022-11-25T00:34:14;8.52;;;3.75;;
14346;SDS011;7257;52.158;9.968;2022-11-25T00:34:35;5.68;;;3.22;;
14346;SDS011;7257;52.158;9.968;2022-11-25T00:34:56;5.90;;;3.30;;
14346;SDS011;7257;52.158;9.968;2022-11-25T00:35:17;6.15;;;3.50;;
14346;SDS011;7257;52.158;9.968;2022-11-25T00:35:39;7.75;;;3.67;;
14346;SDS011;7257;52.158;9.968;2022-11-25T00:36:02;7.63;;;3.70;;
14346;SDS011;7257;52.158;9.968;2022-11-25T00:36:27;9.88;;;4.00;;
14346;SDS011;7257;52.158;9.968;2022-11-25T00:36:55;8.27;;;3.75;;
14346;SDS011;7257;52.158;9.968;2022-11-25T00:37:17;5.45;;;3.22;;
14346;SDS011;7257;52.158;9.968;2022-11-25T00:37:38;6.60;;;3.10;;
14346;SDS011;7257;52.158;9.968;2022-11-25T00:37:59;11.27;;;3.40;;
14346;SDS011;7257;52.158;9.968;2022-11-25T00:38:25;10.70;;;3.20;;
14346;SDS011;7257;52.158;9.968;2022-11-25T00:38:51;9.60;;;3.05;;
14346;SDS011;7257;52.158;9.968;2022-11-25T00:39:20;9.32;;;4.32;;
14346;SDS011;7257;52.158;9.968;2022-11-25T00:39:43;8.10;;;4.57;;
14346;SDS011;7257;52.158;9.968;2022-11-25T00:40:06;7.78;;;3.88;;
14346;SDS011;7257;52.158;9.968;2022-11-25T00:40:31;7.72;;;3.50;;
14346;SDS011;7257;52.158;9.968;2022-11-25T00:40:54;7.55;;;3.20;;
14346;SDS011;7257;52.158;9.968;2022-11-25T00:41:30;6.38;;;3.28;;
14346;SDS011;7257;52.158;9.968;2022-11-25T00:42:11;6.45;;;3.25;;
14346;SDS011;7257;52.158;9.968;2022-11-25T00:42:51;6.03;;;3.38;;
14346;SDS011;7257;52.158;9.968;2022-11-25T00:43:31;6.20;;;2.83;;
14346;SDS011;7257;52.158;9.968;2022-11-25T00:44:21;6.80;;;2.80;;
14346;SDS011;7257;52.158;9.968;2022-11-25T00:44:58;8.60;;;3.85;;
14346;SDS011;7257;52.158;9.968;2022-11-25T00:45:19;7.97;;;4.10;;
14346;SDS011;7257;52.158;9.968;2022-11-25T00:45:41;7.72;;;3.95;;
14346;SDS011;7257;52.158;9.968;2022-11-25T00:46:02;6.75;;;3.97;;
14346;SDS011;7257;52.158;9.968;2022-11-25T00:46:23;6.68;;;3.88;;
14346;SDS011;7257;52.158;9.968;2022-11-25T00:46:46;5.80;;;4.00;;
14346;SDS011;7257;52.158;9.968;2022-11-25T00:47:09;7.13;;;3.40;;
14346;SDS011;7257;52.158;9.968;2022-11-25T00:47:34;6.47;;;3.00;;
14346;SDS011;7257;52.158;9.968;2022-11-25T00:47:56;7.88;;;3.90;;
14346;SDS011;7257;52.158;9.968;2022-11-25T00:48:17;7.38;;;4.25;;
14346;SDS011;7257;52.158;9.968;2022-11-25T00:48:38;8.73;;;4.25;;
14346;SDS011;7257;52.158;9.968;2022-11-25T00:49:00;6.72;;;3.42;;
14346;SDS011;7257;52.158;9.968;2022-11-25T00:49:24;6.50;;;3.00;;
14346;SDS011;7257;52.158;9.968;2022-11-25T00:49:50;6.13;;;2.95;;
14346;SDS011;7257;52.158;9.968;2022-11-25T00:50:14;5.55;;;3.15;;
14346;SDS011;7257;52.158;9.968;2022-11-25T00:50:41;6.35;;;3.88;;
14346;SDS011;7257;52.158;9.968;2022-11-25T00:51:05;5.18;;;3.80;;
14346;SDS011;7257;52.158;9.968;2022-11-25T00:51:26;4.32;;;3.20;;
14346;SDS011;7257;52.158;9.968;2022-11-25T00:51:47;3.53;;;2.90;;
14346;SDS011;7257;52.158;9.968;2022-11-25T00:52:09;3.67;;;2.67;;
14346;SDS011;7257;52.158;9.968;2022-11-25T00:52:33;4.50;;;2.65;;
14346;SDS011;7257;52.158;9.968;2022-11-25T00:52:56;6.55;;;3.40;;
14346;SDS011;7257;52.158;9.968;2022-11-25T00:53:22;8.13;;;3.40;;
14346;SDS011;7257;52.158;9.968;2022-11-25T00:53:46;7.07;;;3.25;;
14346;SDS011;7257;52.158;9.968;2022-11-25T00:54:07;8.10;;;3.60;;
14346;SDS011;7257;52.158;9.968;2022-11-25T00:54:31;7.53;;;4.40;;
14346;SDS011;7257;52.158;9.968;2022-11-25T00:54:54;7.93;;;4.68;;
14346;SDS011;7257;52.158;9.968;2022-11-25T00:55:21;6.63;;;4.05;;
14346;SDS011;7257;52.158;9.968;2022-11-25T00:55:43;5.07;;;3.33;;
14346;SDS011;7257;52.158;9.968;2022-11-25T00:56:22;10.52;;;3.03;;
14346;SDS011;7257;52.158;9.968;2022-11-25T00:56:43;10.70;;;3.10;;
14346;SDS011;7257;52.158;9.968;2022-11-25T00:57:04;9.25;;;3.00;;
14346;SDS011;7257;52.158;9.968;2022-11-25T00:57:28;5.75;;;3.20;;
14346;SDS011;7257;52.158;9.968;2022-11-25T00:57:49;5.95;;;3.45;;
14346;SDS011;7257;52.158;9.968;2022-11-25T00:58:13;5.32;;;3.30;;
14346;SDS011;7257;52.158;9.968;2022-11-25T00:58:34;6.07;;;3.03;;
14346;SDS011;7257;52.158;9.968;2022-11-25T00:58:55;6.80;;;3.10;;
14346;SDS011;7257;52.158;9.968;2022-11-25T00:59:17;7.28;;;3.65;;
14346;SDS011;7257;52.158;9.968;2022-11-25T00:59:41;6.35;;;3.47;;
14346;SDS011;7257;52.158;9.968;2022-11-25T01:00:03;5.85;;;3.20;;
14346;SDS011;7257;52.158;9.968;2022-11-25T01:00:26;5.45;;;3.30;;
14346;SDS011;7257;52.158;9.968;2022-11-25T01:00:47;5.32;;;2.85;;
14346;SDS011;7257;52.158;9.968;2022-11-25T01:01:08;5.03;;;2.80;;
14346;SDS011;7257;52.158;9.968;2022-11-25T01:01:30;6.20;;;3.17;;
14346;SDS011;7257;52.158;9.968;2022-11-25T01:01:51;7.00;;;3.47;;
14346;SDS011;7257;52.158;9.968;2022-11-25T01:02:13;7.10;;;3.78;;
14346;SDS011;7257;52.158;9.968;2022-11-25T01:02:35;6.85;;;3.47;;
14346;SDS011;7257;52.158;9.968;2022-11-25T01:02:59;5.22;;;3.20;;
14346;SDS011;7257;52.158;9.968;2022-11-25T01:03:20;4.75;;;3.25;;
14346;SDS011;7257;52.158;9.968;2022-11-25T01:03:41;4.43;;;3.10;;
14346;SDS011;7257;52.158;9.968;2022-11-25T01:04:07;5.05;;;3.05;;
14346;SDS011;7257;52.158;9.968;2022-11-25T01:04:29;5.80;;;3.15;;
14346;SDS011;7257;52.158;9.968;2022-11-25T01:04:50;7.15;;;3.38;;
14346;SDS011;7257;52.158;9.968;2022-11-25T01:05:12;7.80;;;3.53;;
14346;SDS011;7257;52.158;9.968;2022-11-25T01:05:33;7.45;;;3.72;;
14346;SDS011;7257;52.158;9.968;2022-11-25T01:05:54;5.95;;;3.45;;
14346;SDS011;7257;52.158;9.968;2022-11-25T01:06:23;6.57;;;3.70;;
14346;SDS011;7257;52.158;9.968;2022-11-25T01:06:44;6.47;;;3.90;;
14346;SDS011;7257;52.158;9.968;2022-11-25T01:07:06;6.07;;;3.72;;
14346;SDS011;7257;52.158;9.968;2022-11-25T01:07:27;4.35;;;3.05;;
14346;SDS011;7257;52.158;9.968;2022-11-25T01:07:48;5.10;;;2.90;;
14346;SDS011;7257;52.158;9.968;2022-11-25T01:08:09;4.97;;;2.90;;
14346;SDS011;7257;52.158;9.968;2022-11-25T01:08:30;6.47;;;3.47;;
14346;SDS011;7257;52.158;9.968;2022-11-25T01:08:51;6.03;;;3.58;;
14346;SDS011;7257;52.158;9.968;2022-11-25T01:09:13;6.05;;;3.40;;
14346;SDS011;7257;52.158;9.968;2022-11-25T01:09:35;6.38;;;2.92;;
14346;SDS011;7257;52.158;9.968;2022-11-25T01:09:58;6.90;;;3.45;;
14346;SDS011;7257;52.158;9.968;2022-11-25T01:10:19;7.32;;;3.70;;
14346;SDS011;7257;52.158;9.968;2022-11-25T01:10:41;7.07;;;3.75;;
14346;SDS011;7257;52.158;9.968;2022-11-25T01:11:05;8.95;;;4.13;;
14346;SDS011;7257;52.158;9.968;2022-11-25T01:11:27;10.18;;;4.03;;
14346;SDS011;7257;52.158;9.968;2022-11-25T01:11:51;9.45;;;3.88;;
14346;SDS011;7257;52.158;9.968;2022-11-25T01:12:15;8.07;;;3.00;;
14346;SDS011;7257;52.158;9.968;2022-11-25T01:12:39;5.78;;;2.80;;
14346;SDS011;7257;52.158;9.968;2022-11-25T01:13:00;5.35;;;3.10;;
14346;SDS011;7257;52.158;9.968;2022-11-25T01:13:21;5.22;;;3.10;;
14346;SDS011;7257;52.158;9.968;2022-11-25T01:13:42;5.85;;;2.95;;
14346;SDS011;7257;52.158;9.968;2022-11-25T01:14:03;5.63;;;2.70;;
14346;SDS011;7257;52.158;9.968;2022-11-25T01:14:25;6.53;;;2.97;;
14346;SDS011;7257;52.158;9.968;2022-11-25T01:14:46;6.57;;;3.40;;
14346;SDS011;7257;52.158;9.968;2022-11-25T01:15:07;7.50;;;3.78;;
14346;SDS011;7257;52.158;9.968;2022-11-25T01:15:30;5.63;;;3.53;;
14346;SDS011;7257;52.158;9.968;2022-11-25T01:15:51;5.63;;;3.53;;
14346;SDS011;7257;52.158;9.968;2022-11-25T01:16:15;5.40;;;3.67;;
14346;SDS011;7257;52.158;9.968;2022-11-25T01:16:38;6.88;;;4.03;;
14346;SDS011;7257;52.158;9.968;2022-11-25T01:16:59;6.60;;;3.45;;
14346;SDS011;7257;52.158;9.968;2022-11-25T01:17:21;5.93;;;2.95;;
14346;SDS011;7257;52.158;9.968;2022-11-25T01:17:44;5.70;;;2.95;;
14346;SDS011;7257;52.158;9.968;2022-11-25T01:18:05;6.90;;;3.05;;
14346;SDS011;7257;52.158;9.968;2022-11-25T01:18:26;8.13;;;2.85;;
14346;SDS011;7257;52.158;9.968;2022-11-25T01:18:50;8.07;;;2.60;;
14346;SDS011;7257;52.158;9.968;2022-11-25T01:19:13;5.15;;;2.38;;
14346;SDS011;7257;52.158;9.968;2022-11-25T01:19:34;6.22;;;3.08;;
14346;SDS011;7257;52.158;9.968;2022-11-25T01:19:59;5.40;;;3.40;;
14346;SDS011;7257;52.158;9.968;2022-11-25T01:20:20;4.78;;;2.85;;
14346;SDS011;7257;52.158;9.968;2022-11-25T01:20:42;5.22;;;2.60;;
14346;SDS011;7257;52.158;9.968;2022-11-25T01:21:06;6.72;;;3.00;;
14346;SDS011;7257;52.158;9.968;2022-11-25T01:21:28;6.75;;;3.15;;
14346;SDS011;7257;52.158;9.968;2022-11-25T01:21:50;6.85;;;2.97;;
14346;SDS011;7257;52.158;9.968;2022-11-25T01:22:12;6.90;;;3.15;;
14346;SDS011;7257;52.158;9.968;2022-11-25T01:22:36;8.57;;;4.00;;
14346;SDS011;7257;52.158;9.968;2022-11-25T01:22:57;7.70;;;4.32;;
14346;SDS011;7257;52.158;9.968;2022-11-25T01:23:20;10.00;;;4.35;;
14346;SDS011;7257;52.158;9.968;2022-11-25T01:23:41;9.38;;;3.58;;
14346;SDS011;7257;52.158;9.968;2022-11-25T01:24:07;7.32;;;3.20;;
14346;SDS011;7257;52.158;9.968;2022-11-25T01:24:29;5.80;;;3.22;;
14346;SDS011;7257;52.158;9.968;2022-11-25T01:24:54;7.40;;;3.40;;
14346;SDS011;7257;52.158;9.968;2022-11-25T01:25:18;8.60;;;3.90;;
14346;SDS011;7257;52.158;9.968;2022-11-25T01:25:39;9.07;;;4.03;;
14346;SDS011;7257;52.158;9.968;2022-11-25T01:26:03;6.97;;;4.50;;
14346;SDS011;7257;52.158;9.968;2022-11-25T01:26:26;6.70;;;3.70;;
14346;SDS011;7257;52.158;9.968;2022-11-25T01:26:47;6.25;;;3.25;;
14346;SDS011;7257;52.158;9.968;2022-11-25T01:27:09;6.82;;;3.45;;
14346;SDS011;7257;52.158;9.968;2022-11-25T01:27:30;6.55;;;3.58;;
14346;SDS011;7257;52.158;9.968;2022-11-25T01:27:53;5.40;;;3.28;;
14346;SDS011;7257;52.158;9.968;2022-11-25T01:28:16;4.40;;;3.38;;
14346;SDS011;7257;52.158;9.968;2022-11-25T01:28:37;4.43;;;3.30;;
14346;SDS011;7257;52.158;9.968;2022-11-25T01:29:03;5.05;;;3.60;;
14346;SDS011;7257;52.158;9.968;2022-11-25T01:29:27;6.25;;;3.50;;
14346;SDS011;7257;52.158;9.968;2022-11-25T01:29:50;5.93;;;2.92;;
14346;SDS011;7257;52.158;9.968;2022-11-25T01:30:11;6.68;;;3.47;;
14346;SDS011;7257;52.158;9.968;2022-11-25T01:30:36;8.07;;;3.92;;
14346;SDS011;7257;52.158;9.968;2022-11-25T01:31:00;9.55;;;3.72;;
14346;SDS011;7257;52.158;9.968;2022-11-25T01:31:22;9.27;;;3.30;;
14346;SDS011;7257;52.158;9.968;2022-11-25T01:31:45;8.07;;;3.63;;
14346;SDS011;7257;52.158;9.968;2022-11-25T01:32:08;8.73;;;3.80;;
14346;SDS011;7257;52.158;9.968;2022-11-25T01:32:29;8.65;;;4.35;;
14346;SDS011;7257;52.158;9.968;2022-11-25T01:32:52;7.95;;;4.10;;
14346;SDS011;7257;52.158;9.968;2022-11-25T01:33:13;6.63;;;3.72;;
14346;SDS011;7257;52.158;9.968;2022-11-25T01:33:36;7.87;;;3.00;;
14346;SDS011;7257;52.158;9.968;2022-11-25T01:34:00;9.10;;;2.83;;
14346;SDS011;7257;52.158;9.968;2022-11-25T01:34:25;7.65;;;2.85;;
14346;SDS011;7257;52.158;9.968;2022-11-25T01:34:46;4.70;;;2.67;;
14346;SDS011;7257;52.158;9.968;2022-11-25T01:35:09;5.30;;;3.00;;
14346;SDS011;7257;52.158;9.968;2022-11-25T01:35:35;5.95;;;3.13;;
14346;SDS011;7257;52.158;9.968;2022-11-25T01:35:59;5.85;;;3.45;;
14346;SDS011;7257;52.158;9.968;2022-11-25T01:36:24;6.43;;;3.45;;
14346;SDS011;7257;52.158;9.968;2022-11-25T01:36:47;7.22;;;3.40;;
14346;SDS011;7257;52.158;9.968;2022-11-25T01:37:08;7.32;;;3.42;;
14346;SDS011;7257;52.158;9.968;2022-11-25T01:37:29;6.82;;;3.47;;
14346;SDS011;7257;52.158;9.968;2022-11-25T01:37:50;6.40;;;3.33;;
14346;SDS011;7257;52.158;9.968;2022-11-25T01:38:11;5.38;;;3.33;;
14346;SDS011;7257;52.158;9.968;2022-11-25T01:38:36;5.97;;;3.35;;
14346;SDS011;7257;52.158;9.968;2022-11-25T01:38:59;5.00;;;3.85;;
14346;SDS011;7257;52.158;9.968;2022-11-25T01:39:21;5.60;;;3.88;;
14346;SDS011;7257;52.158;9.968;2022-11-25T01:39:43;6.60;;;3.60;;
14346;SDS011;7257;52.158;9.968;2022-11-25T01:40:08;7.38;;;3.70;;
14346;SDS011;7257;52.158;9.968;2022-11-25T01:40:32;6.65;;;3.50;;
14346;SDS011;7257;52.158;9.968;2022-11-25T01:40:53;5.75;;;3.08;;
14346;SDS011;7257;52.158;9.968;2022-11-25T01:41:21;5.00;;;2.72;;
14346;SDS011;7257;52.158;9.968;2022-11-25T01:41:51;5.57;;;2.60;;
14346;SDS011;7257;52.158;9.968;2022-11-25T01:42:12;5.10;;;2.20;;
14346;SDS011;7257;52.158;9.968;2022-11-25T01:42:33;3.35;;;2.40;;
14346;SDS011;7257;52.158;9.968;2022-11-25T01:42:55;5.43;;;2.60;;
14346;SDS011;7257;52.158;9.968;2022-11-25T01:43:17;6.60;;;3.13;;
14346;SDS011;7257;52.158;9.968;2022-11-25T01:43:38;7.18;;;3.15;;
14346;SDS011;7257;52.158;9.968;2022-11-25T01:44:01;8.35;;;3.08;;
14346;SDS011;7257;52.158;9.968;2022-11-25T01:44:28;8.25;;;3.10;;
14346;SDS011;7257;52.158;9.968;2022-11-25T01:46:03;7.53;;;2.95;;
14346;SDS011;7257;52.158;9.968;2022-11-25T01:46:29;6.57;;;2.80;;
14346;SDS011;7257;52.158;9.968;2022-11-25T01:47:04;7.22;;;2.80;;
14346;SDS011;7257;52.158;9.968;2022-11-25T01:47:32;7.47;;;2.80;;
14346;SDS011;7257;52.158;9.968;2022-11-25T01:47:53;7.18;;;2.50;;
14346;SDS011;7257;52.158;9.968;2022-11-25T01:48:21;6.75;;;2.67;;
14346;SDS011;7257;52.158;9.968;2022-11-25T01:48:47;5.40;;;2.60;;
14346;SDS011;7257;52.158;9.968;2022-11-25T01:49:13;6.07;;;2.50;;
14346;SDS011;7257;52.158;9.968;2022-11-25T01:49:39;9.98;;;3.58;;
14346;SDS011;7257;52.158;9.968;2022-11-25T01:50:04;9.10;;;4.05;;
14346;SDS011;7257;52.158;9.968;2022-11-25T01:50:30;8.05;;;3.88;;
14346;SDS011;7257;52.158;9.968;2022-11-25T01:50:52;6.95;;;3.80;;
14346;SDS011;7257;52.158;9.968;2022-11-25T01:51:16;4.70;;;3.35;;
14346;SDS011;7257;52.158;9.968;2022-11-25T01:51:43;4.30;;;2.90;;
14346;SDS011;7257;52.158;9.968;2022-11-25T01:52:11;5.82;;;2.80;;
14346;SDS011;7257;52.158;9.968;2022-11-25T01:52:37;6.57;;;2.83;;
14346;SDS011;7257;52.158;9.968;2022-11-25T01:53:04;6.00;;;3.20;;
14346;SDS011;7257;52.158;9.968;2022-11-25T01:53:28;5.80;;;3.08;;
14346;SDS011;7257;52.158;9.968;2022-11-25T01:53:49;4.70;;;3.08;;
14346;SDS011;7257;52.158;9.968;2022-11-25T01:54:12;4.80;;;2.90;;
14346;SDS011;7257;52.158;9.968;2022-11-25T01:54:37;5.40;;;3.20;;
14346;SDS011;7257;52.158;9.968;2022-11-25T01:55:05;6.75;;;3.40;;
14346;SDS011;7257;52.158;9.968;2022-11-25T01:55:29;6.60;;;3.70;;
14346;SDS011;7257;52.158;9.968;2022-11-25T01:55:54;7.30;;;4.10;;
14346;SDS011;7257;52.158;9.968;2022-11-25T01:56:19;7.93;;;4.43;;
14346;SDS011;7257;52.158;9.968;2022-11-25T01:56:43;7.82;;;4.43;;
14346;SDS011;7257;52.158;9.968;2022-11-25T01:57:09;7.85;;;4.05;;
14346;SDS011;7257;52.158;9.968;2022-11-25T01:57:33;7.28;;;3.95;;
14346;SDS011;7257;52.158;9.968;2022-11-25T01:58:02;7.10;;;4.32;;
14346;SDS011;7257;52.158;9.968;2022-11-25T01:58:26;7.05;;;4.50;;
14346;SDS011;7257;52.158;9.968;2022-11-25T01:58:49;7.88;;;4.55;;
14346;SDS011;7257;52.158;9.968;2022-11-25T01:59:11;9.00;;;4.60;;
14346;SDS011;7257;52.158;9.968;2022-11-25T01:59:33;8.43;;;4.93;;
14346;SDS011;7257;52.158;9.968;2022-11-25T01:59:59;7.13;;;4.43;;
14346;SDS011;7257;52.158;9.968;2022-11-25T02:00:23;6.30;;;4.40;;
14346;SDS011;7257;52.158;9.968;2022-11-25T02:00:44;6.28;;;3.97;;
14346;SDS011;7257;52.158;9.968;2022-11-25T02:01:10;6.13;;;3.75;;
14346;SDS011;7257;52.158;9.968;2022-11-25T02:01:32;6.30;;;3.80;;
14346;SDS011;7257;52.158;9.968;2022-11-25T02:01:56;6.72;;;3.63;;
14346;SDS011;7257;52.158;9.968;2022-11-25T02:02:18;5.90;;;3.30;;
14346;SDS011;7257;52.158;9.968;2022-11-25T02:02:40;5.80;;;3.67;;
14346;SDS011;7257;52.158;9.968;2022-11-25T02:03:05;6.25;;;3.90;;
14346;SDS011;7257;52.158;9.968;2022-11-25T02:03:28;6.15;;;3.45;;
14346;SDS011;7257;52.158;9.968;2022-11-25T02:03:54;7.38;;;3.13;;
14346;SDS011;7257;52.158;9.968;2022-11-25T02:04:17;8.05;;;3.10;;
14346;SDS011;7257;52.158;9.968;2022-11-25T02:04:43;7.55;;;3.30;;
14346;SDS011;7257;52.158;9.968;2022-11-25T02:05:07;6.32;;;3.53;;
14346;SDS011;7257;52.158;9.968;2022-11-25T02:05:34;4.68;;;3.05;;
14346;SDS011;7257;52.158;9.968;2022-11-25T02:06:01;5.85;;;2.97;;
14346;SDS011;7257;52.158;9.968;2022-11-25T02:06:30;7.10;;;3.60;;
14346;SDS011;7257;52.158;9.968;2022-11-25T02:06:56;6.43;;;3.75;;
14346;SDS011;7257;52.158;9.968;2022-11-25T02:07:24;8.95;;;3.78;;
14346;SDS011;7257;52.158;9.968;2022-11-25T02:07:50;7.65;;;3.78;;
14346;SDS011;7257;52.158;9.968;2022-11-25T02:08:12;5.80;;;3.40;;
14346;SDS011;7257;52.158;9.968;2022-11-25T02:08:34;6.70;;;3.47;;
14346;SDS011;7257;52.158;9.968;2022-11-25T02:08:57;7.00;;;3.45;;
14346;SDS011;7257;52.158;9.968;2022-11-25T02:09:23;6.55;;;3.25;;
14346;SDS011;7257;52.158;9.968;2022-11-25T02:09:46;6.15;;;3.03;;
14346;SDS011;7257;52.158;9.968;2022-11-25T02:10:10;6.90;;;3.42;;
14346;SDS011;7257;52.158;9.968;2022-11-25T02:10:35;7.00;;;3.90;;
14346;SDS011;7257;52.158;9.968;2022-11-25T02:10:56;7.85;;;4.00;;
14346;SDS011;7257;52.158;9.968;2022-11-25T02:11:18;7.88;;;4.03;;
14346;SDS011;7257;52.158;9.968;2022-11-25T02:11:42;8.00;;;3.63;;
14346;SDS011;7257;52.158;9.968;2022-11-25T02:12:04;6.45;;;3.30;;
14346;SDS011;7257;52.158;9.968;2022-11-25T02:12:26;6.55;;;3.35;;
14346;SDS011;7257;52.158;9.968;2022-11-25T02:12:49;7.68;;;3.88;;
14346;SDS011;7257;52.158;9.968;2022-11-25T02:13:12;7.65;;;4.25;;
14346;SDS011;7257;52.158;9.968;2022-11-25T02:13:33;5.93;;;3.63;;
14346;SDS011;7257;52.158;9.968;2022-11-25T02:13:55;5.50;;;3.33;;
14346;SDS011;7257;52.158;9.968;2022-11-25T02:14:16;5.75;;;3.05;;
14346;SDS011;7257;52.158;9.968;2022-11-25T02:14:40;6.25;;;2.85;;
14346;SDS011;7257;52.158;9.968;2022-11-25T02:15:01;5.65;;;2.63;;
14346;SDS011;7257;52.158;9.968;2022-11-25T02:15:23;5.55;;;2.70;;
14346;SDS011;7257;52.158;9.968;2022-11-25T02:15:45;5.32;;;2.90;;
14346;SDS011;7257;52.158;9.968;2022-11-25T02:16:07;6.65;;;3.22;;
14346;SDS011;7257;52.158;9.968;2022-11-25T02:16:28;6.57;;;3.65;;
14346;SDS011;7257;52.158;9.968;2022-11-25T02:16:52;7.78;;;3.60;;
14346;SDS011;7257;52.158;9.968;2022-11-25T02:17:13;6.35;;;3.08;;
14346;SDS011;7257;52.158;9.968;2022-11-25T02:17:34;7.03;;;2.88;;
14346;SDS011;7257;52.158;9.968;2022-11-25T02:17:56;5.93;;;2.90;;
14346;SDS011;7257;52.158;9.968;2022-11-25T02:18:17;7.57;;;3.58;;
14346;SDS011;7257;52.158;9.968;2022-11-25T02:18:38;8.05;;;4.07;;
14346;SDS011;7257;52.158;9.968;2022-11-25T02:18:59;8.60;;;4.72;;
14346;SDS011;7257;52.158;9.968;2022-11-25T02:19:23;7.75;;;4.28;;
14346;SDS011;7257;52.158;9.968;2022-11-25T02:19:55;7.38;;;3.78;;
14346;SDS011;7257;52.158;9.968;2022-11-25T02:20:20;8.45;;;3.50;;
14346;SDS011;7257;52.158;9.968;2022-11-25T02:20:43;6.65;;;3.30;;
14346;SDS011;7257;52.158;9.968;2022-11-25T02:21:05;7.13;;;2.95;;
14346;SDS011;7257;52.158;9.968;2022-11-25T02:21:29;7.45;;;3.30;;
14346;SDS011;7257;52.158;9.968;2022-11-25T02:21:59;8.55;;;4.22;;
14346;SDS011;7257;52.158;9.968;2022-11-25T02:22:25;9.85;;;4.40;;
14346;SDS011;7257;52.158;9.968;2022-11-25T02:22:56;9.32;;;3.50;;
14346;SDS011;7257;52.158;9.968;2022-11-25T02:23:24;7.13;;;2.60;;
14346;SDS011;7257;52.158;9.968;2022-11-25T02:23:51;6.05;;;2.80;;
14346;SDS011;7257;52.158;9.968;2022-11-25T02:24:21;6.55;;;3.25;;
14346;SDS011;7257;52.158;9.968;2022-11-25T02:24:49;8.60;;;3.00;;
14346;SDS011;7257;52.158;9.968;2022-11-25T02:25:17;7.47;;;2.80;;
14346;SDS011;7257;52.158;9.968;2022-11-25T02:25:41;4.40;;;2.70;;